Time;durP1;ratioP1;P1;durP2;ratioP2;P2;SDS_P1;SDS_P2;PMS_P1;PMS_P2;Temp;Humidity;BMP_temperature;BMP_pressure;BME280_temperature;BME280_humidity;BME280_pressure;Samples;Min_cycle;Max_cycle;Signal;HPM_P1;HPM_P2
2021/05/12 00:00:42;;;;;;;1.3;1.2;;;;;;;10.08;88.41992;94657.54;;;;
2021/05/12 00:01:43;;;;;;;1.3;1.2;;;;;;;10.08;88.41992;94657.54;;;;
2021/05/12 00:02:43;;;;;;;1.3;1.2;;;;;;;10.08;88.41992;94657.54;;;;
2021/05/12 00:03:44;;;;;;;1.45;1.2;;;;;;;9.98;89.93262;94645.54;;;;
2021/05/12 00:04:44;;;;;;;1.45;1.2;;;;;;;9.98;89.93262;94645.54;;;;
2021/05/12 00:05:45;;;;;;;1.45;1.2;;;;;;;9.98;89.93262;94645.54;;;;
2021/05/12 00:06:46;;;;;;;1.45;1.2;;;;;;;9.98;89.93262;94645.54;;;;
2021/05/12 00:07:46;;;;;;;1.45;1.2;;;;;;;9.98;89.93262;94645.54;;;;
2021/05/12 00:08:47;;;;;;;1.45;1.2;;;;;;;9.98;89.93262;94645.54;;;;
2021/05/12 00:09:48;;;;;;;1.45;1.2;;;;;;;9.98;89.93262;94645.54;;;;
2021/05/12 00:10:48;;;;;;;1.45;1.2;;;;;;;9.98;89.93262;94645.54;;;;
2021/05/12 00:11:48;;;;;;;1.45;1.2;;;;;;;9.98;89.93262;94645.54;;;;
2021/05/12 00:12:49;;;;;;;1.45;1.2;;;;;;;9.98;89.93262;94645.54;;;;
2021/05/12 00:13:51;;;;;;;1.2;1.1;;;;;;;9.89;90.72168;94645.82;;;;
2021/05/12 00:14:51;;;;;;;1.2;1.1;;;;;;;9.89;90.72168;94645.82;;;;
2021/05/12 00:15:52;;;;;;;1.2;1.1;;;;;;;9.89;90.72168;94645.82;;;;
2021/05/12 00:16:53;;;;;;;1.2;1.1;;;;;;;9.89;90.72168;94645.82;;;;
2021/05/12 00:17:54;;;;;;;1.2;1.1;;;;;;;9.89;90.72168;94645.82;;;;
2021/05/12 00:18:55;;;;;;;1.2;1.1;;;;;;;9.89;90.72168;94645.82;;;;
2021/05/12 00:19:57;;;;;;;1.2;1.1;;;;;;;9.89;90.72168;94645.82;;;;
2021/05/12 00:20:57;;;;;;;1.2;1.1;;;;;;;9.89;90.72168;94645.82;;;;
2021/05/12 00:22:11;;;;;;;1.2;1.1;;;;;;;9.89;90.72168;94645.82;;;;
2021/05/12 00:23:14;;;;;;;1.2;1.1;;;;;;;9.89;90.72168;94645.82;;;;
2021/05/12 00:24:15;;;;;;;1.6;1.3;;;;;;;9.87;91.38672;94650.12;;;;
2021/05/12 00:25:15;;;;;;;1.6;1.3;;;;;;;9.87;91.38672;94650.12;;;;
2021/05/12 00:26:17;;;;;;;1.6;1.3;;;;;;;9.87;91.38672;94650.12;;;;
2021/05/12 00:27:17;;;;;;;1.6;1.3;;;;;;;9.87;91.38672;94650.12;;;;
2021/05/12 00:28:18;;;;;;;1.6;1.3;;;;;;;9.87;91.38672;94650.12;;;;
2021/05/12 00:29:18;;;;;;;1.6;1.3;;;;;;;9.87;91.38672;94650.12;;;;
2021/05/12 00:30:19;;;;;;;1.6;1.3;;;;;;;9.87;91.38672;94650.12;;;;
2021/05/12 00:31:22;;;;;;;1.6;1.3;;;;;;;9.87;91.38672;94650.12;;;;
2021/05/12 00:32:22;;;;;;;1.6;1.3;;;;;;;9.87;91.38672;94650.12;;;;
2021/05/12 00:33:23;;;;;;;1.6;1.3;;;;;;;9.87;91.38672;94650.12;;;;
2021/05/12 00:34:23;;;;;;;1.6;1.3;;;;;;;9.87;91.38672;94650.12;;;;
2021/05/12 00:35:25;;;;;;;1.4;1.3;;;;;;;9.86;92.16113;94644.42;;;;
2021/05/12 00:36:26;;;;;;;1.4;1.3;;;;;;;9.86;92.16113;94644.42;;;;
2021/05/12 00:37:27;;;;;;;1.4;1.3;;;;;;;9.86;92.16113;94644.42;;;;
2021/05/12 00:38:28;;;;;;;1.4;1.3;;;;;;;9.86;92.16113;94644.42;;;;
2021/05/12 00:39:28;;;;;;;1.4;1.3;;;;;;;9.86;92.16113;94644.42;;;;
2021/05/12 00:40:28;;;;;;;1.4;1.3;;;;;;;9.86;92.16113;94644.42;;;;
2021/05/12 00:41:29;;;;;;;1.4;1.3;;;;;;;9.86;92.16113;94644.42;;;;
2021/05/12 00:42:30;;;;;;;1.4;1.3;;;;;;;9.86;92.16113;94644.42;;;;
2021/05/12 00:43:31;;;;;;;1.4;1.3;;;;;;;9.86;92.16113;94644.42;;;;
2021/05/12 00:44:32;;;;;;;1.4;1.3;;;;;;;9.86;92.16113;94644.42;;;;
2021/05/12 00:45:32;;;;;;;1.7;1.2;;;;;;;9.78;92.65332;94637.7;;;;
2021/05/12 00:46:33;;;;;;;1.7;1.2;;;;;;;9.78;92.65332;94637.7;;;;
2021/05/12 00:47:48;;;;;;;1.7;1.2;;;;;;;9.78;92.65332;94637.7;;;;
2021/05/12 00:48:50;;;;;;;1.7;1.2;;;;;;;9.78;92.65332;94637.7;;;;
2021/05/12 00:49:50;;;;;;;1.7;1.2;;;;;;;9.78;92.65332;94637.7;;;;
2021/05/12 00:50:51;;;;;;;1.7;1.2;;;;;;;9.78;92.65332;94637.7;;;;
2021/05/12 00:51:51;;;;;;;1.7;1.2;;;;;;;9.78;92.65332;94637.7;;;;
2021/05/12 00:52:52;;;;;;;1.7;1.2;;;;;;;9.78;92.65332;94637.7;;;;
2021/05/12 00:53:52;;;;;;;1.7;1.2;;;;;;;9.78;92.65332;94637.7;;;;
2021/05/12 00:54:53;;;;;;;1.7;1.2;;;;;;;9.78;92.65332;94637.7;;;;
2021/05/12 00:55:54;;;;;;;1.7;1.2;;;;;;;9.78;92.65332;94637.7;;;;
2021/05/12 00:56:54;;;;;;;1.1;0.8;;;;;;;9.64;93.75;94634.51;;;;
2021/05/12 00:57:55;;;;;;;1.1;0.8;;;;;;;9.64;93.75;94634.51;;;;
2021/05/12 00:58:55;;;;;;;1.1;0.8;;;;;;;9.64;93.75;94634.51;;;;
2021/05/12 00:59:56;;;;;;;1.1;0.8;;;;;;;9.64;93.75;94634.51;;;;
2021/05/12 01:00:56;;;;;;;1.1;0.8;;;;;;;9.64;93.75;94634.51;;;;
2021/05/12 01:01:57;;;;;;;1.1;0.8;;;;;;;9.64;93.75;94634.51;;;;
2021/05/12 01:02:58;;;;;;;1.1;0.8;;;;;;;9.64;93.75;94634.51;;;;
2021/05/12 01:04:01;;;;;;;1.1;0.8;;;;;;;9.64;93.75;94634.51;;;;
2021/05/12 01:05:02;;;;;;;1.1;0.8;;;;;;;9.64;93.75;94634.51;;;;
2021/05/12 01:06:05;;;;;;;1.1;0.8;;;;;;;9.64;93.75;94634.51;;;;
2021/05/12 01:07:21;;;;;;;2.7;1;;;;;;;9.53;94.69141;94621.55;;;;
2021/05/12 01:08:21;;;;;;;2.7;1;;;;;;;9.53;94.69141;94621.55;;;;
2021/05/12 01:09:22;;;;;;;2.7;1;;;;;;;9.53;94.69141;94621.55;;;;
2021/05/12 01:10:23;;;;;;;2.7;1;;;;;;;9.53;94.69141;94621.55;;;;
2021/05/12 01:11:23;;;;;;;2.7;1;;;;;;;9.53;94.69141;94621.55;;;;
2021/05/12 01:12:26;;;;;;;2.7;1;;;;;;;9.53;94.69141;94621.55;;;;
2021/05/12 01:13:28;;;;;;;2.7;1;;;;;;;9.53;94.69141;94621.55;;;;
2021/05/12 01:14:29;;;;;;;2.7;1;;;;;;;9.53;94.69141;94621.55;;;;
2021/05/12 01:15:30;;;;;;;2.7;1;;;;;;;9.53;94.69141;94621.55;;;;
2021/05/12 01:16:31;;;;;;;2.7;1;;;;;;;9.53;94.69141;94621.55;;;;
2021/05/12 01:17:32;;;;;;;1.1;1;;;;;;;9.43;94.81836;94628.52;;;;
2021/05/12 01:18:32;;;;;;;1.1;1;;;;;;;9.43;94.81836;94628.52;;;;
2021/05/12 01:19:34;;;;;;;1.1;1;;;;;;;9.43;94.81836;94628.52;;;;
2021/05/12 01:20:34;;;;;;;1.1;1;;;;;;;9.43;94.81836;94628.52;;;;
2021/05/12 01:21:47;;;;;;;1.1;1;;;;;;;9.43;94.81836;94628.52;;;;
2021/05/12 01:22:47;;;;;;;1.1;1;;;;;;;9.43;94.81836;94628.52;;;;
2021/05/12 01:23:48;;;;;;;1.1;1;;;;;;;9.43;94.81836;94628.52;;;;
2021/05/12 01:24:50;;;;;;;1.1;1;;;;;;;9.43;94.81836;94628.52;;;;
2021/05/12 01:25:50;;;;;;;1.1;1;;;;;;;9.43;94.81836;94628.52;;;;
2021/05/12 01:26:52;;;;;;;1.1;1;;;;;;;9.43;94.81836;94628.52;;;;
2021/05/12 01:27:53;;;;;;;1.1;1;;;;;;;9.43;94.81836;94628.52;;;;
2021/05/12 01:28:54;;;;;;;1.2;1;;;;;;;9.43;95.71973;94637.13;;;;
2021/05/12 01:29:55;;;;;;;1.2;1;;;;;;;9.43;95.71973;94637.13;;;;
2021/05/12 01:30:56;;;;;;;1.2;1;;;;;;;9.43;95.71973;94637.13;;;;
2021/05/12 01:31:58;;;;;;;1.2;1;;;;;;;9.43;95.71973;94637.13;;;;
2021/05/12 01:33:03;;;;;;;1.2;1;;;;;;;9.43;95.71973;94637.13;;;;
2021/05/12 01:34:05;;;;;;;1.2;1;;;;;;;9.43;95.71973;94637.13;;;;
2021/05/12 01:35:11;;;;;;;1.2;1;;;;;;;9.43;95.71973;94637.13;;;;
2021/05/12 01:36:11;;;;;;;1.2;1;;;;;;;9.43;95.71973;94637.13;;;;
2021/05/12 01:37:12;;;;;;;1.2;1;;;;;;;9.43;95.71973;94637.13;;;;
2021/05/12 01:38:13;;;;;;;1.2;1;;;;;;;9.43;95.71973;94637.13;;;;
2021/05/12 01:39:13;;;;;;;0.9;0.9;;;;;;;9.42;95.77051;94639.43;;;;
2021/05/12 01:40:15;;;;;;;0.9;0.9;;;;;;;9.42;95.77051;94639.43;;;;
2021/05/12 01:41:16;;;;;;;0.9;0.9;;;;;;;9.42;95.77051;94639.43;;;;
2021/05/12 01:42:19;;;;;;;0.9;0.9;;;;;;;9.42;95.77051;94639.43;;;;
2021/05/12 01:43:19;;;;;;;0.9;0.9;;;;;;;9.42;95.77051;94639.43;;;;
2021/05/12 01:44:22;;;;;;;0.9;0.9;;;;;;;9.42;95.77051;94639.43;;;;
2021/05/12 01:45:23;;;;;;;0.9;0.9;;;;;;;9.42;95.77051;94639.43;;;;
2021/05/12 01:46:23;;;;;;;0.9;0.9;;;;;;;9.42;95.77051;94639.43;;;;
2021/05/12 01:47:24;;;;;;;0.9;0.9;;;;;;;9.42;95.77051;94639.43;;;;
2021/05/12 01:48:25;;;;;;;0.9;0.9;;;;;;;9.42;95.77051;94639.43;;;;
2021/05/12 01:49:29;;;;;;;1;1;;;;;;;9.35;95.84961;94634.33;;;;
2021/05/12 01:50:29;;;;;;;1;1;;;;;;;9.35;95.84961;94634.33;;;;
2021/05/12 01:51:30;;;;;;;1;1;;;;;;;9.35;95.84961;94634.33;;;;
2021/05/12 01:52:31;;;;;;;1;1;;;;;;;9.35;95.84961;94634.33;;;;
2021/05/12 01:53:36;;;;;;;1;1;;;;;;;9.35;95.84961;94634.33;;;;
2021/05/12 01:54:37;;;;;;;1;1;;;;;;;9.35;95.84961;94634.33;;;;
2021/05/12 01:55:38;;;;;;;1;1;;;;;;;9.35;95.84961;94634.33;;;;
2021/05/12 01:56:39;;;;;;;1;1;;;;;;;9.35;95.84961;94634.33;;;;
2021/05/12 01:57:41;;;;;;;1;1;;;;;;;9.35;95.84961;94634.33;;;;
2021/05/12 01:58:42;;;;;;;1;1;;;;;;;9.35;95.84961;94634.33;;;;
2021/05/12 01:59:42;;;;;;;1;1;;;;;;;9.35;95.84961;94634.33;;;;
2021/05/12 02:00:43;;;;;;;0.95;0.95;;;;;;;9.29;96.29492;94639.75;;;;
2021/05/12 02:01:46;;;;;;;0.95;0.95;;;;;;;9.29;96.29492;94639.75;;;;
2021/05/12 02:02:46;;;;;;;0.95;0.95;;;;;;;9.29;96.29492;94639.75;;;;
2021/05/12 02:03:47;;;;;;;0.95;0.95;;;;;;;9.29;96.29492;94639.75;;;;
2021/05/12 02:04:47;;;;;;;0.95;0.95;;;;;;;9.29;96.29492;94639.75;;;;
2021/05/12 02:05:48;;;;;;;0.95;0.95;;;;;;;9.29;96.29492;94639.75;;;;
2021/05/12 02:06:50;;;;;;;0.95;0.95;;;;;;;9.29;96.29492;94639.75;;;;
2021/05/12 02:07:50;;;;;;;0.95;0.95;;;;;;;9.29;96.29492;94639.75;;;;
2021/05/12 02:08:52;;;;;;;0.95;0.95;;;;;;;9.29;96.29492;94639.75;;;;
2021/05/12 02:09:53;;;;;;;0.95;0.95;;;;;;;9.29;96.29492;94639.75;;;;
2021/05/12 02:10:53;;;;;;;1.1;1;;;;;;;9.33;96.72656;94630.13;;;;
2021/05/12 02:11:56;;;;;;;1.1;1;;;;;;;9.33;96.72656;94630.13;;;;
2021/05/12 02:12:56;;;;;;;1.1;1;;;;;;;9.33;96.72656;94630.13;;;;
2021/05/12 02:13:58;;;;;;;1.1;1;;;;;;;9.33;96.72656;94630.13;;;;
2021/05/12 02:14:58;;;;;;;1.1;1;;;;;;;9.33;96.72656;94630.13;;;;
2021/05/12 02:15:59;;;;;;;1.1;1;;;;;;;9.33;96.72656;94630.13;;;;
2021/05/12 02:17:02;;;;;;;1.1;1;;;;;;;9.33;96.72656;94630.13;;;;
2021/05/12 02:18:02;;;;;;;1.1;1;;;;;;;9.33;96.72656;94630.13;;;;
2021/05/12 02:19:03;;;;;;;1.1;1;;;;;;;9.33;96.72656;94630.13;;;;
2021/05/12 02:20:04;;;;;;;1.1;1;;;;;;;9.33;96.72656;94630.13;;;;
2021/05/12 02:21:09;;;;;;;1.1;1;;;;;;;9.33;96.72656;94630.13;;;;
2021/05/12 02:22:09;;;;;;;0.9;0.9;;;;;;;9.39;96.55859;94626.58;;;;
2021/05/12 02:23:10;;;;;;;0.9;0.9;;;;;;;9.39;96.55859;94626.58;;;;
2021/05/12 02:24:12;;;;;;;0.9;0.9;;;;;;;9.39;96.55859;94626.58;;;;
2021/05/12 02:25:13;;;;;;;0.9;0.9;;;;;;;9.39;96.55859;94626.58;;;;
2021/05/12 02:26:14;;;;;;;0.9;0.9;;;;;;;9.39;96.55859;94626.58;;;;
2021/05/12 02:27:14;;;;;;;0.9;0.9;;;;;;;9.39;96.55859;94626.58;;;;
2021/05/12 02:28:15;;;;;;;0.9;0.9;;;;;;;9.39;96.55859;94626.58;;;;
2021/05/12 02:29:15;;;;;;;0.9;0.9;;;;;;;9.39;96.55859;94626.58;;;;
2021/05/12 02:30:16;;;;;;;0.9;0.9;;;;;;;9.39;96.55859;94626.58;;;;
2021/05/12 02:31:17;;;;;;;0.9;0.9;;;;;;;9.39;96.55859;94626.58;;;;
2021/05/12 02:32:17;;;;;;;0.8;0.8;;;;;;;9.4;96.91992;94628.61;;;;
2021/05/12 02:33:18;;;;;;;0.8;0.8;;;;;;;9.4;96.91992;94628.61;;;;
2021/05/12 02:34:19;;;;;;;0.8;0.8;;;;;;;9.4;96.91992;94628.61;;;;
2021/05/12 02:35:19;;;;;;;0.8;0.8;;;;;;;9.4;96.91992;94628.61;;;;
2021/05/12 02:36:20;;;;;;;0.8;0.8;;;;;;;9.4;96.91992;94628.61;;;;
2021/05/12 02:37:20;;;;;;;0.8;0.8;;;;;;;9.4;96.91992;94628.61;;;;
2021/05/12 02:38:21;;;;;;;0.8;0.8;;;;;;;9.4;96.91992;94628.61;;;;
2021/05/12 02:39:22;;;;;;;0.8;0.8;;;;;;;9.4;96.91992;94628.61;;;;
2021/05/12 02:40:22;;;;;;;0.8;0.8;;;;;;;9.4;96.91992;94628.61;;;;
2021/05/12 02:41:23;;;;;;;0.8;0.8;;;;;;;9.4;96.91992;94628.61;;;;
2021/05/12 02:42:24;;;;;;;0.8;0.8;;;;;;;9.4;96.91992;94628.61;;;;
2021/05/12 02:43:25;;;;;;;1.1;1;;;;;;;9.39;97.41797;94619.28;;;;
2021/05/12 02:44:26;;;;;;;1.1;1;;;;;;;9.39;97.41797;94619.28;;;;
2021/05/12 02:45:26;;;;;;;1.1;1;;;;;;;9.39;97.41797;94619.28;;;;
2021/05/12 02:46:29;;;;;;;1.1;1;;;;;;;9.39;97.41797;94619.28;;;;
2021/05/12 02:47:29;;;;;;;1.1;1;;;;;;;9.39;97.41797;94619.28;;;;
2021/05/12 02:48:30;;;;;;;1.1;1;;;;;;;9.39;97.41797;94619.28;;;;
2021/05/12 02:49:30;;;;;;;1.1;1;;;;;;;9.39;97.41797;94619.28;;;;
2021/05/12 02:50:31;;;;;;;1.1;1;;;;;;;9.39;97.41797;94619.28;;;;
2021/05/12 02:51:34;;;;;;;1.1;1;;;;;;;9.39;97.41797;94619.28;;;;
2021/05/12 02:52:35;;;;;;;1.1;1;;;;;;;9.39;97.41797;94619.28;;;;
2021/05/12 02:53:35;;;;;;;1.05;0.95;;;;;;;9.35;98.08496;94619.51;;;;
2021/05/12 02:54:36;;;;;;;1.05;0.95;;;;;;;9.35;98.08496;94619.51;;;;
2021/05/12 02:55:36;;;;;;;1.05;0.95;;;;;;;9.35;98.08496;94619.51;;;;
2021/05/12 02:56:38;;;;;;;1.05;0.95;;;;;;;9.35;98.08496;94619.51;;;;
2021/05/12 02:57:38;;;;;;;1.05;0.95;;;;;;;9.35;98.08496;94619.51;;;;
2021/05/12 02:58:39;;;;;;;1.05;0.95;;;;;;;9.35;98.08496;94619.51;;;;
2021/05/12 02:59:39;;;;;;;1.05;0.95;;;;;;;9.35;98.08496;94619.51;;;;
2021/05/12 03:00:40;;;;;;;1.05;0.95;;;;;;;9.35;98.08496;94619.51;;;;
2021/05/12 03:01:41;;;;;;;1.05;0.95;;;;;;;9.35;98.08496;94619.51;;;;
2021/05/12 03:02:42;;;;;;;1.05;0.95;;;;;;;9.35;98.08496;94619.51;;;;
2021/05/12 03:03:43;;;;;;;1.05;0.95;;;;;;;9.35;98.08496;94619.51;;;;
2021/05/12 03:04:43;;;;;;;1.1;1;;;;;;;9.33;98.79297;94628.78;;;;
2021/05/12 03:05:44;;;;;;;1.1;1;;;;;;;9.33;98.79297;94628.78;;;;
2021/05/12 03:06:45;;;;;;;1.1;1;;;;;;;9.33;98.79297;94628.78;;;;
2021/05/12 03:07:45;;;;;;;1.1;1;;;;;;;9.33;98.79297;94628.78;;;;
2021/05/12 03:08:46;;;;;;;1.1;1;;;;;;;9.33;98.79297;94628.78;;;;
2021/05/12 03:09:46;;;;;;;1.1;1;;;;;;;9.33;98.79297;94628.78;;;;
2021/05/12 03:10:47;;;;;;;1.1;1;;;;;;;9.33;98.79297;94628.78;;;;
2021/05/12 03:11:48;;;;;;;1.1;1;;;;;;;9.33;98.79297;94628.78;;;;
2021/05/12 03:12:49;;;;;;;1.1;1;;;;;;;9.33;98.79297;94628.78;;;;
2021/05/12 03:13:51;;;;;;;1.1;1;;;;;;;9.33;98.79297;94628.78;;;;
2021/05/12 03:14:51;;;;;;;1.1;0.9;;;;;;;9.33;99.51074;94632.92;;;;
2021/05/12 03:15:52;;;;;;;1.1;0.9;;;;;;;9.33;99.51074;94632.92;;;;
2021/05/12 03:16:53;;;;;;;1.1;0.9;;;;;;;9.33;99.51074;94632.92;;;;
2021/05/12 03:17:53;;;;;;;1.1;0.9;;;;;;;9.33;99.51074;94632.92;;;;
2021/05/12 03:18:56;;;;;;;1.1;0.9;;;;;;;9.33;99.51074;94632.92;;;;
2021/05/12 03:19:57;;;;;;;1.1;0.9;;;;;;;9.33;99.51074;94632.92;;;;
2021/05/12 03:20:57;;;;;;;1.1;0.9;;;;;;;9.33;99.51074;94632.92;;;;
2021/05/12 03:21:58;;;;;;;1.1;0.9;;;;;;;9.33;99.51074;94632.92;;;;
2021/05/12 03:22:59;;;;;;;1.1;0.9;;;;;;;9.33;99.51074;94632.92;;;;
2021/05/12 03:24:00;;;;;;;1.1;0.9;;;;;;;9.33;99.51074;94632.92;;;;
2021/05/12 03:25:01;;;;;;;1.1;0.9;;;;;;;9.33;99.51074;94632.92;;;;
2021/05/12 03:26:02;;;;;;;1.2;1.1;;;;;;;9.24;100;94628.89;;;;
2021/05/12 03:27:03;;;;;;;1.2;1.1;;;;;;;9.24;100;94628.89;;;;
2021/05/12 03:28:04;;;;;;;1.2;1.1;;;;;;;9.24;100;94628.89;;;;
2021/05/12 03:29:05;;;;;;;1.2;1.1;;;;;;;9.24;100;94628.89;;;;
2021/05/12 03:30:06;;;;;;;1.2;1.1;;;;;;;9.24;100;94628.89;;;;
2021/05/12 03:31:10;;;;;;;1.2;1.1;;;;;;;9.24;100;94628.89;;;;
2021/05/12 03:32:11;;;;;;;1.2;1.1;;;;;;;9.24;100;94628.89;;;;
2021/05/12 03:33:11;;;;;;;1.2;1.1;;;;;;;9.24;100;94628.89;;;;
2021/05/12 03:34:13;;;;;;;1.2;1.1;;;;;;;9.24;100;94628.89;;;;
2021/05/12 03:35:13;;;;;;;1.2;1.1;;;;;;;9.24;100;94628.89;;;;
2021/05/12 03:36:15;;;;;;;1.05;1;;;;;;;9.23;100;94641.23;;;;
2021/05/12 03:37:15;;;;;;;1.05;1;;;;;;;9.23;100;94641.23;;;;
2021/05/12 03:38:17;;;;;;;1.05;1;;;;;;;9.23;100;94641.23;;;;
2021/05/12 03:39:17;;;;;;;1.05;1;;;;;;;9.23;100;94641.23;;;;
2021/05/12 03:40:18;;;;;;;1.05;1;;;;;;;9.23;100;94641.23;;;;
2021/05/12 03:41:18;;;;;;;1.05;1;;;;;;;9.23;100;94641.23;;;;
2021/05/12 03:42:20;;;;;;;1.05;1;;;;;;;9.23;100;94641.23;;;;
2021/05/12 03:43:20;;;;;;;1.05;1;;;;;;;9.23;100;94641.23;;;;
2021/05/12 03:44:21;;;;;;;1.05;1;;;;;;;9.23;100;94641.23;;;;
2021/05/12 03:45:22;;;;;;;1.05;1;;;;;;;9.23;100;94641.23;;;;
2021/05/12 03:46:23;;;;;;;1.05;1;;;;;;;9.23;100;94641.23;;;;
2021/05/12 03:47:24;;;;;;;1.2;1.1;;;;;;;9.24;100;94638.32;;;;
2021/05/12 03:48:24;;;;;;;1.2;1.1;;;;;;;9.24;100;94638.32;;;;
2021/05/12 03:49:25;;;;;;;1.2;1.1;;;;;;;9.24;100;94638.32;;;;
2021/05/12 03:50:25;;;;;;;1.2;1.1;;;;;;;9.24;100;94638.32;;;;
2021/05/12 03:51:28;;;;;;;1.2;1.1;;;;;;;9.24;100;94638.32;;;;
2021/05/12 03:52:29;;;;;;;1.2;1.1;;;;;;;9.24;100;94638.32;;;;
2021/05/12 03:53:30;;;;;;;1.2;1.1;;;;;;;9.24;100;94638.32;;;;
2021/05/12 03:54:30;;;;;;;1.2;1.1;;;;;;;9.24;100;94638.32;;;;
2021/05/12 03:55:31;;;;;;;1.2;1.1;;;;;;;9.24;100;94638.32;;;;
2021/05/12 03:56:32;;;;;;;1.2;1.1;;;;;;;9.24;100;94638.32;;;;
2021/05/12 03:57:32;;;;;;;1.15;1.05;;;;;;;9.18;100;94646.01;;;;
2021/05/12 03:58:33;;;;;;;1.15;1.05;;;;;;;9.18;100;94646.01;;;;
2021/05/12 03:59:34;;;;;;;1.15;1.05;;;;;;;9.18;100;94646.01;;;;
2021/05/12 04:00:34;;;;;;;1.15;1.05;;;;;;;9.18;100;94646.01;;;;
2021/05/12 04:01:35;;;;;;;1.15;1.05;;;;;;;9.18;100;94646.01;;;;
2021/05/12 04:02:35;;;;;;;1.15;1.05;;;;;;;9.18;100;94646.01;;;;
2021/05/12 04:03:36;;;;;;;1.15;1.05;;;;;;;9.18;100;94646.01;;;;
2021/05/12 04:04:36;;;;;;;1.15;1.05;;;;;;;9.18;100;94646.01;;;;
2021/05/12 04:05:37;;;;;;;1.15;1.05;;;;;;;9.18;100;94646.01;;;;
2021/05/12 04:06:39;;;;;;;1.15;1.05;;;;;;;9.18;100;94646.01;;;;
2021/05/12 04:07:40;;;;;;;1.15;1.05;;;;;;;9.18;100;94646.01;;;;
2021/05/12 04:08:41;;;;;;;1.2;1.05;;;;;;;9.15;100;94652.83;;;;
2021/05/12 04:09:42;;;;;;;1.2;1.05;;;;;;;9.15;100;94652.83;;;;
2021/05/12 04:10:42;;;;;;;1.2;1.05;;;;;;;9.15;100;94652.83;;;;
2021/05/12 04:11:45;;;;;;;1.2;1.05;;;;;;;9.15;100;94652.83;;;;
2021/05/12 04:12:46;;;;;;;1.2;1.05;;;;;;;9.15;100;94652.83;;;;
2021/05/12 04:13:47;;;;;;;1.2;1.05;;;;;;;9.15;100;94652.83;;;;
2021/05/12 04:14:47;;;;;;;1.2;1.05;;;;;;;9.15;100;94652.83;;;;
2021/05/12 04:15:48;;;;;;;1.2;1.05;;;;;;;9.15;100;94652.83;;;;
2021/05/12 04:16:51;;;;;;;1.2;1.05;;;;;;;9.15;100;94652.83;;;;
2021/05/12 04:17:51;;;;;;;1.2;1.05;;;;;;;9.15;100;94652.83;;;;
2021/05/12 04:18:52;;;;;;;1.25;1.15;;;;;;;9.1;100;94654.47;;;;
2021/05/12 04:19:53;;;;;;;1.25;1.15;;;;;;;9.1;100;94654.47;;;;
2021/05/12 04:20:54;;;;;;;1.25;1.15;;;;;;;9.1;100;94654.47;;;;
2021/05/12 04:21:54;;;;;;;1.25;1.15;;;;;;;9.1;100;94654.47;;;;
2021/05/12 04:22:55;;;;;;;1.25;1.15;;;;;;;9.1;100;94654.47;;;;
2021/05/12 04:23:56;;;;;;;1.25;1.15;;;;;;;9.1;100;94654.47;;;;
2021/05/12 04:24:56;;;;;;;1.25;1.15;;;;;;;9.1;100;94654.47;;;;
2021/05/12 04:25:57;;;;;;;1.25;1.15;;;;;;;9.1;100;94654.47;;;;
2021/05/12 04:26:57;;;;;;;1.25;1.15;;;;;;;9.1;100;94654.47;;;;
2021/05/12 04:27:58;;;;;;;1.25;1.15;;;;;;;9.1;100;94654.47;;;;
2021/05/12 04:28:59;;;;;;;1.25;1.15;;;;;;;9.1;100;94654.47;;;;
2021/05/12 04:30:00;;;;;;;1.1;1.1;;;;;;;9.09;100;94660.1;;;;
2021/05/12 04:31:00;;;;;;;1.1;1.1;;;;;;;9.09;100;94660.1;;;;
2021/05/12 04:32:01;;;;;;;1.1;1.1;;;;;;;9.09;100;94660.1;;;;
2021/05/12 04:33:01;;;;;;;1.1;1.1;;;;;;;9.09;100;94660.1;;;;
2021/05/12 04:34:02;;;;;;;1.1;1.1;;;;;;;9.09;100;94660.1;;;;
2021/05/12 04:35:03;;;;;;;1.1;1.1;;;;;;;9.09;100;94660.1;;;;
2021/05/12 04:36:04;;;;;;;1.1;1.1;;;;;;;9.09;100;94660.1;;;;
2021/05/12 04:37:05;;;;;;;1.1;1.1;;;;;;;9.09;100;94660.1;;;;
2021/05/12 04:38:06;;;;;;;1.1;1.1;;;;;;;9.09;100;94660.1;;;;
2021/05/12 04:39:07;;;;;;;1.1;1.1;;;;;;;9.09;100;94660.1;;;;
2021/05/12 04:40:07;;;;;;;2.1;1.2;;;;;;;9.09;100;94654.3;;;;
2021/05/12 04:41:10;;;;;;;2.1;1.2;;;;;;;9.09;100;94654.3;;;;
2021/05/12 04:42:10;;;;;;;2.1;1.2;;;;;;;9.09;100;94654.3;;;;
2021/05/12 04:43:11;;;;;;;2.1;1.2;;;;;;;9.09;100;94654.3;;;;
2021/05/12 04:44:12;;;;;;;2.1;1.2;;;;;;;9.09;100;94654.3;;;;
2021/05/12 04:45:13;;;;;;;2.1;1.2;;;;;;;9.09;100;94654.3;;;;
2021/05/12 04:46:15;;;;;;;2.1;1.2;;;;;;;9.09;100;94654.3;;;;
2021/05/12 04:47:15;;;;;;;2.1;1.2;;;;;;;9.09;100;94654.3;;;;
2021/05/12 04:48:16;;;;;;;2.1;1.2;;;;;;;9.09;100;94654.3;;;;
2021/05/12 04:49:16;;;;;;;2.1;1.2;;;;;;;9.09;100;94654.3;;;;
2021/05/12 04:50:18;;;;;;;2.1;1.2;;;;;;;9.09;100;94654.3;;;;
2021/05/12 04:51:18;;;;;;;1.15;1.05;;;;;;;9.12;100;94649.25;;;;
2021/05/12 04:52:19;;;;;;;1.15;1.05;;;;;;;9.12;100;94649.25;;;;
2021/05/12 04:53:19;;;;;;;1.15;1.05;;;;;;;9.12;100;94649.25;;;;
2021/05/12 04:54:20;;;;;;;1.15;1.05;;;;;;;9.12;100;94649.25;;;;
2021/05/12 04:55:20;;;;;;;1.15;1.05;;;;;;;9.12;100;94649.25;;;;
2021/05/12 04:56:21;;;;;;;1.15;1.05;;;;;;;9.12;100;94649.25;;;;
2021/05/12 04:57:22;;;;;;;1.15;1.05;;;;;;;9.12;100;94649.25;;;;
2021/05/12 04:58:22;;;;;;;1.15;1.05;;;;;;;9.12;100;94649.25;;;;
2021/05/12 04:59:23;;;;;;;1.15;1.05;;;;;;;9.12;100;94649.25;;;;
2021/05/12 05:00:23;;;;;;;1.15;1.05;;;;;;;9.12;100;94649.25;;;;
2021/05/12 05:01:24;;;;;;;1.4;0.95;;;;;;;9.16;100;94651.75;;;;
2021/05/12 05:02:25;;;;;;;1.4;0.95;;;;;;;9.16;100;94651.75;;;;
2021/05/12 05:03:26;;;;;;;1.4;0.95;;;;;;;9.16;100;94651.75;;;;
2021/05/12 05:04:26;;;;;;;1.4;0.95;;;;;;;9.16;100;94651.75;;;;
2021/05/12 05:05:28;;;;;;;1.4;0.95;;;;;;;9.16;100;94651.75;;;;
2021/05/12 05:06:29;;;;;;;1.4;0.95;;;;;;;9.16;100;94651.75;;;;
2021/05/12 05:07:30;;;;;;;1.4;0.95;;;;;;;9.16;100;94651.75;;;;
2021/05/12 05:08:30;;;;;;;1.4;0.95;;;;;;;9.16;100;94651.75;;;;
2021/05/12 05:09:31;;;;;;;1.4;0.95;;;;;;;9.16;100;94651.75;;;;
2021/05/12 05:10:31;;;;;;;1.4;0.95;;;;;;;9.16;100;94651.75;;;;
2021/05/12 05:11:32;;;;;;;1.4;0.95;;;;;;;9.16;100;94651.75;;;;
2021/05/12 05:12:33;;;;;;;1.4;1;;;;;;;9.28;100;94644.83;;;;
2021/05/12 05:13:34;;;;;;;1.4;1;;;;;;;9.28;100;94644.83;;;;
2021/05/12 05:14:34;;;;;;;1.4;1;;;;;;;9.28;100;94644.83;;;;
2021/05/12 05:15:35;;;;;;;1.4;1;;;;;;;9.28;100;94644.83;;;;
2021/05/12 05:16:35;;;;;;;1.4;1;;;;;;;9.28;100;94644.83;;;;
2021/05/12 05:17:36;;;;;;;1.4;1;;;;;;;9.28;100;94644.83;;;;
2021/05/12 05:18:37;;;;;;;1.4;1;;;;;;;9.28;100;94644.83;;;;
2021/05/12 05:19:38;;;;;;;1.4;1;;;;;;;9.28;100;94644.83;;;;
2021/05/12 05:20:38;;;;;;;1.4;1;;;;;;;9.28;100;94644.83;;;;
2021/05/12 05:21:40;;;;;;;1.4;1;;;;;;;9.28;100;94644.83;;;;
2021/05/12 05:22:41;;;;;;;1.4;1;;;;;;;9.28;100;94644.83;;;;
2021/05/12 05:23:41;;;;;;;1.2;0.9;;;;;;;9.41;100;94650.43;;;;
2021/05/12 05:24:42;;;;;;;1.2;0.9;;;;;;;9.41;100;94650.43;;;;
2021/05/12 05:25:42;;;;;;;1.2;0.9;;;;;;;9.41;100;94650.43;;;;
2021/05/12 05:26:43;;;;;;;1.2;0.9;;;;;;;9.41;100;94650.43;;;;
2021/05/12 05:27:43;;;;;;;1.2;0.9;;;;;;;9.41;100;94650.43;;;;
2021/05/12 05:28:44;;;;;;;1.2;0.9;;;;;;;9.41;100;94650.43;;;;
2021/05/12 05:29:44;;;;;;;1.2;0.9;;;;;;;9.41;100;94650.43;;;;
2021/05/12 05:30:45;;;;;;;1.2;0.9;;;;;;;9.41;100;94650.43;;;;
2021/05/12 05:31:45;;;;;;;1.2;0.9;;;;;;;9.41;100;94650.43;;;;
2021/05/12 05:32:46;;;;;;;1.2;0.9;;;;;;;9.41;100;94650.43;;;;
2021/05/12 05:33:46;;;;;;;1.35;1;;;;;;;9.53;100;94645.81;;;;
2021/05/12 05:34:47;;;;;;;1.35;1;;;;;;;9.53;100;94645.81;;;;
2021/05/12 05:35:47;;;;;;;1.35;1;;;;;;;9.53;100;94645.81;;;;
2021/05/12 05:36:48;;;;;;;1.35;1;;;;;;;9.53;100;94645.81;;;;
2021/05/12 05:37:48;;;;;;;1.35;1;;;;;;;9.53;100;94645.81;;;;
2021/05/12 05:38:49;;;;;;;1.35;1;;;;;;;9.53;100;94645.81;;;;
2021/05/12 05:39:49;;;;;;;1.35;1;;;;;;;9.53;100;94645.81;;;;
2021/05/12 05:40:50;;;;;;;1.35;1;;;;;;;9.53;100;94645.81;;;;
2021/05/12 05:41:55;;;;;;;1.35;1;;;;;;;9.53;100;94645.81;;;;
2021/05/12 05:42:58;;;;;;;1.35;1;;;;;;;9.53;100;94645.81;;;;
2021/05/12 05:44:00;;;;;;;1.35;1;;;;;;;9.53;100;94645.81;;;;
2021/05/12 05:45:00;;;;;;;1.4;0.95;;;;;;;9.62;100;94659.16;;;;
2021/05/12 05:46:01;;;;;;;1.4;0.95;;;;;;;9.62;100;94659.16;;;;
2021/05/12 05:47:01;;;;;;;1.4;0.95;;;;;;;9.62;100;94659.16;;;;
2021/05/12 05:48:02;;;;;;;1.4;0.95;;;;;;;9.62;100;94659.16;;;;
2021/05/12 05:49:04;;;;;;;1.4;0.95;;;;;;;9.62;100;94659.16;;;;
2021/05/12 05:50:04;;;;;;;1.4;0.95;;;;;;;9.62;100;94659.16;;;;
2021/05/12 05:51:06;;;;;;;1.4;0.95;;;;;;;9.62;100;94659.16;;;;
2021/05/12 05:52:06;;;;;;;1.4;0.95;;;;;;;9.62;100;94659.16;;;;
2021/05/12 05:53:07;;;;;;;1.4;0.95;;;;;;;9.62;100;94659.16;;;;
2021/05/12 05:54:07;;;;;;;1.4;0.95;;;;;;;9.62;100;94659.16;;;;
2021/05/12 05:55:08;;;;;;;1.3;0.9;;;;;;;9.73;100;94665.52;;;;
2021/05/12 05:56:09;;;;;;;1.3;0.9;;;;;;;9.73;100;94665.52;;;;
2021/05/12 05:57:14;;;;;;;1.3;0.9;;;;;;;9.73;100;94665.52;;;;
2021/05/12 05:58:15;;;;;;;1.3;0.9;;;;;;;9.73;100;94665.52;;;;
2021/05/12 05:59:15;;;;;;;1.3;0.9;;;;;;;9.73;100;94665.52;;;;
2021/05/12 06:00:16;;;;;;;1.3;0.9;;;;;;;9.73;100;94665.52;;;;
2021/05/12 06:01:18;;;;;;;1.3;0.9;;;;;;;9.73;100;94665.52;;;;
2021/05/12 06:02:19;;;;;;;1.3;0.9;;;;;;;9.73;100;94665.52;;;;
2021/05/12 06:03:19;;;;;;;1.3;0.9;;;;;;;9.73;100;94665.52;;;;
2021/05/12 06:04:20;;;;;;;1.3;0.9;;;;;;;9.73;100;94665.52;;;;
2021/05/12 06:05:20;;;;;;;1.3;0.9;;;;;;;9.73;100;94665.52;;;;
2021/05/12 06:06:21;;;;;;;0.8;0.8;;;;;;;9.76;100;94670.83;;;;
2021/05/12 06:07:22;;;;;;;0.8;0.8;;;;;;;9.76;100;94670.83;;;;
2021/05/12 06:08:24;;;;;;;0.8;0.8;;;;;;;9.76;100;94670.83;;;;
2021/05/12 06:09:25;;;;;;;0.8;0.8;;;;;;;9.76;100;94670.83;;;;
2021/05/12 06:10:25;;;;;;;0.8;0.8;;;;;;;9.76;100;94670.83;;;;
2021/05/12 06:11:26;;;;;;;0.8;0.8;;;;;;;9.76;100;94670.83;;;;
2021/05/12 06:12:27;;;;;;;0.8;0.8;;;;;;;9.76;100;94670.83;;;;
2021/05/12 06:13:27;;;;;;;0.8;0.8;;;;;;;9.76;100;94670.83;;;;
2021/05/12 06:14:28;;;;;;;0.8;0.8;;;;;;;9.76;100;94670.83;;;;
2021/05/12 06:15:28;;;;;;;0.8;0.8;;;;;;;9.76;100;94670.83;;;;